Time;durP1;ratioP1;P1;durP2;ratioP2;P2;SDS_P1;SDS_P2;PMS_P1;PMS_P2;Temp;Humidity;BMP_temperature;BMP_pressure;BME280_temperature;BME280_humidity;BME280_pressure;Samples;Min_cycle;Max_cycle;Signal;HPM_P1;HPM_P2
2022/12/25 00:00:38;;;;;;;30.60;6.32;;;;;;;6.82;100.00;101369.44;6181924;23;20005;-86
2022/12/25 00:03:03;;;;;;;36.78;6.05;;;;;;;6.83;100.00;101362.28;6182302;23;20008;-87
2022/12/25 00:05:28;;;;;;;25.23;5.93;;;;;;;6.85;100.00;101368.19;6183035;23;20012;-85
2022/12/25 00:07:54;;;;;;;22.43;6.10;;;;;;;6.87;100.00;101358.13;6182511;23;20036;-86
2022/12/25 00:10:19;;;;;;;27.40;6.13;;;;;;;6.87;100.00;101360.00;6182858;23;20080;-86
2022/12/25 00:12:45;;;;;;;34.10;6.00;;;;;;;6.92;100.00;101354.81;6182800;23;20006;-86
2022/12/25 00:15:10;;;;;;;32.92;6.72;;;;;;;6.92;100.00;101357.50;6183227;23;20445;-86
2022/12/25 00:17:35;;;;;;;39.60;6.40;;;;;;;6.96;100.00;101369.31;6182923;23;20016;-86
2022/12/25 00:20:00;;;;;;;34.10;6.67;;;;;;;6.96;100.00;101361.31;6182358;23;20012;-86
2022/12/25 00:22:26;;;;;;;30.37;6.20;;;;;;;6.87;100.00;101352.00;6183329;23;20334;-86
2022/12/25 00:24:51;;;;;;;33.00;7.13;;;;;;;6.93;100.00;101359.13;6182317;23;20329;-86
2022/12/25 00:27:17;;;;;;;29.70;6.30;;;;;;;6.92;100.00;101352.16;6183057;23;20009;-86
2022/12/25 00:29:42;;;;;;;32.60;6.63;;;;;;;6.98;100.00;101361.91;6181570;23;20031;-86
2022/12/25 00:32:07;;;;;;;27.03;6.60;;;;;;;6.96;100.00;101361.31;6182660;23;20310;-86
2022/12/25 00:34:33;;;;;;;27.37;6.03;;;;;;;6.94;100.00;101356.22;6182372;23;20529;-86
2022/12/25 00:36:58;;;;;;;30.10;6.47;;;;;;;6.97;100.00;101360.28;6182807;23;20005;-86
2022/12/25 00:39:23;;;;;;;29.17;7.07;;;;;;;6.92;100.00;101354.81;6182521;23;20012;-86
2022/12/25 00:44:33;;;;;;;29.50;6.70;;;;;;;7.03;100.00;101366.63;6182292;23;20295;-86
2022/12/25 00:46:58;;;;;;;35.80;7.07;;;;;;;7.01;100.00;101347.38;6182926;23;20009;-86
2022/12/25 00:49:23;;;;;;;28.40;6.90;;;;;;;7.05;100.00;101354.69;6183092;23;20009;-86
2022/12/25 00:51:50;;;;;;;35.63;7.03;;;;;;;7.06;100.00;101350.16;6181491;23;20001;-86
2022/12/25 00:54:15;;;;;;;22.83;6.55;;;;;;;7.00;100.00;101349.19;6182185;23;20009;-86
2022/12/25 00:56:41;;;;;;;34.87;7.30;;;;;;;7.08;100.00;101364.91;6182679;23;20302;-85
2022/12/25 00:59:06;;;;;;;31.60;7.07;;;;;;;7.09;100.00;101355.88;6181605;23;20044;-87
2022/12/25 01:01:32;;;;;;;33.87;6.37;;;;;;;7.11;100.00;101352.97;6181111;23;20059;-87
2022/12/25 01:03:57;;;;;;;39.17;6.97;;;;;;;7.09;100.00;101347.88;6182484;23;20329;-87
2022/12/25 01:06:23;;;;;;;34.60;8.13;;;;;;;7.13;100.00;101351.72;6182582;23;20009;-86
2022/12/25 01:11:34;;;;;;;31.15;7.10;;;;;;;7.13;100.00;101335.72;6181110;23;20410;-86
2022/12/25 01:13:59;;;;;;;32.97;7.25;;;;;;;7.11;100.00;101332.50;6182764;23;20084;-87
2022/12/25 01:16:24;;;;;;;31.70;7.47;;;;;;;7.11;100.00;101334.31;6182527;23;20009;-87
2022/12/25 01:18:50;;;;;;;33.47;7.00;;;;;;;7.02;100.00;101323.16;6181953;23;20016;-87
2022/12/25 01:21:17;;;;;;;28.20;6.93;;;;;;;7.08;100.00;101335.59;6182333;23;20005;-86
2022/12/25 01:23:43;;;;;;;30.17;8.00;;;;;;;7.07;100.00;101331.31;6182129;23;20460;-87
2022/12/25 01:26:11;;;;;;;30.65;7.30;;;;;;;7.03;100.00;101338.09;6181368;23;20071;-87
2022/12/25 01:28:37;;;;;;;24.50;7.13;;;;;;;7.06;100.00;101347.50;6182044;23;20009;-87
2022/12/25 01:31:07;;;;;;;27.13;6.43;;;;;;;7.04;100.00;101352.22;6182322;23;20059;-87
2022/12/25 01:33:32;;;;;;;41.47;7.67;;;;;;;7.05;100.00;101352.03;6182030;23;20251;-87
2022/12/25 01:35:57;;;;;;;33.28;7.18;;;;;;;7.03;100.00;101364.75;6182993;23;20024;-87
2022/12/25 01:38:23;;;;;;;22.60;6.90;;;;;;;7.02;100.00;101365.78;6182185;23;20417;-87
2022/12/25 01:40:48;;;;;;;25.87;6.27;;;;;;;7.03;100.00;101358.63;6181076;23;20005;-87
2022/12/25 01:43:30;;;;;;;25.87;6.30;;;;;;;7.05;100.00;101357.34;6182612;23;20059;-87
2022/12/25 01:45:56;;;;;;;23.13;7.03;;;;;;;7.05;100.00;101349.34;6182592;23;20319;-87
2022/12/25 01:48:34;;;;;;;31.13;6.90;;;;;;;7.15;100.00;101356.84;6181947;23;20001;-87
2022/12/25 01:51:19;;;;;;;30.58;6.68;;;;;;;7.17;100.00;101362.75;6181530;23;20322;-87
2022/12/25 01:53:44;;;;;;;26.63;6.57;;;;;;;7.18;100.00;101367.06;6182351;23;20001;-87
2022/12/25 01:56:10;;;;;;;32.47;6.47;;;;;;;7.17;100.00;101369.94;6181428;23;20005;-86
2022/12/25 01:58:36;;;;;;;25.83;6.40;;;;;;;7.08;100.00;101356.91;6181368;23;20016;-86
2022/12/25 02:01:01;;;;;;;30.13;6.70;;;;;;;7.15;100.00;101377.34;6181976;23;20063;-86
2022/12/25 02:03:26;;;;;;;23.47;6.60;;;;;;;7.25;100.00;101382.97;6182100;23;20001;-86
2022/12/25 02:05:53;;;;;;;24.70;6.40;;;;;;;7.17;100.00;101369.94;6180970;23;20021;-87
2022/12/25 02:08:20;;;;;;;22.50;6.03;;;;;;;7.24;100.00;101381.34;6182024;23;20008;-86
2022/12/25 02:10:46;;;;;;;16.53;5.77;;;;;;;7.24;100.00;101382.16;6181367;23;20240;-87
2022/12/25 02:13:14;;;;;;;31.10;6.72;;;;;;;7.21;100.00;101365.78;6181773;23;20039;-88
2022/12/25 02:15:46;;;;;;;23.50;5.80;;;;;;;7.25;100.00;101381.13;6182189;23;20076;-88
2022/12/25 02:18:24;;;;;;;23.67;6.43;;;;;;;7.20;100.00;101366.81;6181703;23;20260;-88
2022/12/25 02:21:33;;;;;;;21.17;5.57;;;;;;;7.28;100.00;101387.88;6181584;23;20009;-88
2022/12/25 02:24:17;;;;;;;23.25;6.05;;;;;;;7.28;100.00;101388.69;6118891;23;20006;-88
2022/12/25 02:27:14;;;;;;;26.70;6.82;;;;;;;7.30;100.00;101391.13;6119600;23;20049;-88
2022/12/25 02:29:41;;;;;;;24.77;6.32;;;;;;;7.30;100.00;101399.13;6131360;23;20013;-87
2022/12/25 02:32:30;;;;;;;25.20;5.72;;;;;;;7.25;100.00;101378.44;6181868;23;20009;-88
2022/12/25 02:35:04;;;;;;;25.80;6.43;;;;;;;7.29;100.00;101392.16;6181934;23;20001;-88
2022/12/25 02:37:42;;;;;;;26.13;6.23;;;;;;;7.30;100.00;101380.47;6181986;23;20289;-88
2022/12/25 02:40:11;;;;;;;23.92;6.32;;;;;;;7.30;100.00;101375.16;6181964;23;20344;-88
2022/12/25 03:07:55;;;;;;;20.87;6.43;;;;;;;7.18;100.00;101334.25;6182032;23;20164;-88
2022/12/25 03:13:13;;;;;;;19.65;5.50;;;;;;;7.06;100.00;101319.00;6181461;23;20029;-89
2022/12/25 03:18:26;;;;;;;19.77;5.40;;;;;;;6.99;100.00;101288.94;6183098;23;20023;-88
2022/12/25 03:29:09;;;;;;;19.27;5.73;;;;;;;6.69;100.00;101273.69;6183130;23;20612;-88
2022/12/25 03:31:52;;;;;;;21.13;5.82;;;;;;;6.73;100.00;101279.38;6182847;23;20021;-88
2022/12/25 04:36:12;;;;;;;15.23;5.00;;;;;;;6.52;100.00;101257.47;6182641;23;20020;-87
2022/12/25 04:38:39;;;;;;;20.33;5.05;;;;;;;6.56;100.00;101268.50;6181475;23;20028;-87
2022/12/25 04:41:05;;;;;;;18.63;5.20;;;;;;;6.60;100.00;101280.31;6182235;23;20028;-87
2022/12/25 04:43:30;;;;;;;15.57;4.83;;;;;;;6.62;100.00;101272.94;6182360;23;20268;-87
2022/12/25 04:45:59;;;;;;;20.17;5.53;;;;;;;6.63;100.00;101280.72;6182899;23;20105;-88
2022/12/25 04:48:26;;;;;;;15.95;4.53;;;;;;;6.60;100.00;101272.34;6182178;23;20005;-88
2022/12/25 04:50:52;;;;;;;19.33;5.77;;;;;;;6.61;100.00;101272.13;6182299;23;20102;-88
2022/12/25 04:53:18;;;;;;;16.65;4.53;;;;;;;6.69;100.00;101267.53;6182626;23;20012;-88
2022/12/25 04:55:44;;;;;;;17.00;5.97;;;;;;;6.66;100.00;101255.50;6182520;23;20009;-87
2022/12/25 04:58:10;;;;;;;15.70;4.73;;;;;;;6.64;100.00;101254.91;6182928;23;20087;-88
2022/12/25 05:00:35;;;;;;;17.17;4.97;;;;;;;6.64;100.00;101261.06;6181132;23;20028;-87
2022/12/25 05:03:01;;;;;;;12.77;4.70;;;;;;;6.58;100.00;101251.28;6182802;23;20009;-87
2022/12/25 05:05:26;;;;;;;13.10;4.23;;;;;;;6.60;100.00;101251.03;6182638;23;20043;-87
2022/12/25 05:07:51;;;;;;;14.57;4.23;;;;;;;6.56;100.00;101244.53;6181417;23;20210;-87
2022/12/25 05:10:17;;;;;;;13.30;4.00;;;;;;;6.55;100.00;101245.59;6182740;23;20407;-87
2022/12/25 05:12:42;;;;;;;21.07;4.47;;;;;;;6.47;100.00;101244.81;6182882;23;20005;-87
2022/12/25 05:15:08;;;;;;;11.77;4.05;;;;;;;6.50;100.00;101241.72;6182079;23;20035;-87
2022/12/25 05:17:33;;;;;;;17.20;3.60;;;;;;;6.48;100.00;101233.13;6183245;23;20481;-87
2022/12/25 05:19:59;;;;;;;12.70;3.70;;;;;;;6.53;100.00;101251.09;6182344;23;20012;-87
2022/12/25 05:22:24;;;;;;;16.53;3.77;;;;;;;6.57;100.00;101232.88;6182452;23;20025;-87
2022/12/25 05:24:49;;;;;;;17.63;4.33;;;;;;;6.64;100.00;101245.06;6182391;23;20012;-86
2022/12/25 05:27:15;;;;;;;15.00;3.93;;;;;;;6.72;100.00;101246.63;6181895;23;20009;-88
2022/12/25 05:29:40;;;;;;;13.43;3.97;;;;;;;6.69;100.00;101224.94;6182132;23;20537;-88
2022/12/25 05:32:06;;;;;;;16.23;3.70;;;;;;;6.81;100.00;101229.28;6182456;23;20029;-87
2022/12/25 05:34:31;;;;;;;14.17;3.97;;;;;;;6.84;100.00;101217.41;6182020;23;20024;-88
2022/12/25 05:36:56;;;;;;;14.97;4.13;;;;;;;6.90;100.00;101213.03;6184853;23;20432;-89
2022/12/25 05:39:22;;;;;;;14.35;3.72;;;;;;;6.95;100.00;101219.31;6189610;23;20013;-90
2022/12/25 05:41:48;;;;;;;14.10;3.60;;;;;;;7.02;100.00;101219.22;6185796;23;20035;-88
2022/12/25 05:44:13;;;;;;;18.10;3.95;;;;;;;7.06;100.00;101217.75;6179645;23;20020;-88
2022/12/25 05:46:38;;;;;;;11.30;3.30;;;;;;;7.13;100.00;101223.78;6182348;23;20064;-88
2022/12/25 05:49:04;;;;;;;13.07;3.00;;;;;;;7.15;100.00;101222.75;6182860;23;20035;-88
2022/12/25 05:51:30;;;;;;;12.48;2.63;;;;;;;7.19;100.00;101224.75;6181910;23;20001;-87
2022/12/25 05:53:57;;;;;;;11.37;2.93;;;;;;;7.20;100.00;101223.72;6181753;23;20076;-86
2022/12/25 05:56:23;;;;;;;10.27;2.80;;;;;;;7.22;100.00;101218.16;6182301;23;20009;-87
2022/12/25 05:58:49;;;;;;;8.27;2.80;;;;;;;7.26;100.00;101225.47;6181814;23;20373;-89
2022/12/25 06:01:18;;;;;;;7.13;2.63;;;;;;;7.26;100.00;101220.13;6184924;23;20341;-90
2022/12/25 06:03:43;;;;;;;9.60;2.80;;;;;;;7.25;100.00;101213.19;6186869;23;20051;-89
2022/12/25 06:06:10;;;;;;;11.60;2.90;;;;;;;7.27;100.00;101208.44;6182592;23;20028;-89
2022/12/25 06:08:35;;;;;;;9.85;2.45;;;;;;;7.27;100.00;101196.97;6191045;23;20101;-90
2022/12/25 06:11:03;;;;;;;10.63;2.90;;;;;;;7.30;100.00;101209.84;6188888;23;19997;-89
2022/12/25 06:13:28;;;;;;;13.97;2.60;;;;;;;7.26;100.00;101206.00;6189815;23;20005;-88
2022/12/25 06:15:54;;;;;;;6.97;2.43;;;;;;;7.31;100.00;101206.13;6186671;23;20391;-87
2022/12/25 06:18:19;;;;;;;10.90;2.57;;;;;;;7.32;100.00;101202.41;6188469;23;20084;-89
2022/12/25 06:20:44;;;;;;;8.40;2.17;;;;;;;7.34;100.00;101204.88;6184294;23;19997;-88
2022/12/25 06:23:10;;;;;;;9.83;2.50;;;;;;;7.33;100.00;101177.38;6187118;23;20059;-89
2022/12/25 06:25:39;;;;;;;8.07;2.10;;;;;;;7.38;100.00;101182.06;6190432;23;20652;-89
2022/12/25 06:28:04;;;;;;;10.30;2.40;;;;;;;7.36;100.00;101179.59;6184423;23;20241;-89
2022/12/25 06:30:29;;;;;;;8.27;2.20;;;;;;;7.37;100.00;101183.91;6185144;23;20008;-89
2022/12/25 06:32:55;;;;;;;11.80;2.70;;;;;;;7.37;100.00;101178.56;6185316;23;20031;-89
2022/12/25 06:35:20;;;;;;;9.93;2.53;;;;;;;7.39;100.00;101187.16;6186244;23;20096;-89
2022/12/25 06:37:45;;;;;;;11.90;2.43;;;;;;;7.41;100.00;101186.91;6187102;23;20436;-90
2022/12/25 06:40:12;;;;;;;7.67;2.10;;;;;;;7.40;100.00;101163.97;6185472;23;20028;-89
2022/12/25 06:42:37;;;;;;;5.78;1.90;;;;;;;7.43;100.00;101161.66;6181000;23;20036;-88
2022/12/25 06:45:03;;;;;;;13.73;2.65;;;;;;;7.42;100.00;101160.03;6185256;23;20013;-90
2022/12/25 06:47:28;;;;;;;7.80;2.33;;;;;;;7.41;100.00;101152.25;6184176;23;20005;-89
2022/12/25 06:49:53;;;;;;;13.03;2.37;;;;;;;7.43;100.00;101151.00;6183640;23;20421;-89
2022/12/25 06:52:19;;;;;;;6.20;2.20;;;;;;;7.40;100.00;101143.47;6186949;23;20001;-89
2022/12/25 06:54:46;;;;;;;6.85;2.58;;;;;;;7.41;100.00;101142.41;6186129;23;20004;-89
2022/12/25 06:57:11;;;;;;;5.33;2.40;;;;;;;7.42;100.00;101128.03;6193018;23;20020;-90
2022/12/25 06:59:36;;;;;;;11.05;2.60;;;;;;;7.42;100.00;101116.56;6192605;23;20016;-88
2022/12/25 07:02:02;;;;;;;6.40;2.50;;;;;;;7.40;100.00;101119.47;6184177;23;20015;-88
2022/12/25 07:04:37;;;;;;;13.77;2.80;;;;;;;7.37;100.00;101114.56;6184871;23;20005;-88
2022/12/25 07:07:04;;;;;;;6.93;2.70;;;;;;;7.38;100.00;101124.22;6185795;23;20032;-88
2022/12/25 07:09:30;;;;;;;7.15;3.47;;;;;;;7.37;100.00;101114.56;6185773;23;20024;-89
2022/12/25 07:12:07;;;;;;;11.13;4.00;;;;;;;7.38;100.00;101120.75;6183849;23;20426;-90
2022/12/25 07:14:32;;;;;;;10.85;3.20;;;;;;;7.36;100.00;101126.28;6188118;23;20437;-89
2022/12/25 07:16:57;;;;;;;9.07;2.67;;;;;;;7.35;100.00;101137.97;6187040;23;20012;-90
2022/12/25 07:19:23;;;;;;;9.60;2.93;;;;;;;7.34;100.00;101131.03;6185803;23;20004;-90
2022/12/25 07:21:48;;;;;;;8.48;2.97;;;;;;;7.36;100.00;101133.47;6184117;23;20487;-90
2022/12/25 07:24:21;;;;;;;8.03;2.80;;;;;;;7.34;100.00;101136.34;6185970;23;20001;-89
2022/12/25 07:26:47;;;;;;;8.38;3.05;;;;;;;7.34;100.00;101155.03;6184616;23;20021;-90
2022/12/25 07:29:12;;;;;;;10.60;3.00;;;;;;;7.35;100.00;101155.84;6187790;23;20116;-90
2022/12/25 07:31:37;;;;;;;8.03;2.90;;;;;;;7.32;100.00;101157.09;6185736;23;20001;-89
2022/12/25 07:34:03;;;;;;;10.77;2.87;;;;;;;7.33;100.00;101166.72;6186702;23;20009;-90
2022/12/25 07:36:29;;;;;;;11.03;3.47;;;;;;;7.34;100.00;101168.34;6183338;23;20240;-89
2022/12/25 07:38:54;;;;;;;10.27;2.90;;;;;;;7.33;100.00;101164.06;6185155;23;20001;-90
2022/12/25 07:41:20;;;;;;;6.17;2.80;;;;;;;7.33;100.00;101161.38;6184114;23;20243;-89
2022/12/25 07:43:51;;;;;;;7.20;2.87;;;;;;;7.32;100.00;101150.97;6184061;23;20024;-89
2022/12/25 07:46:17;;;;;;;11.75;3.10;;;;;;;7.28;100.00;101127.44;6188568;23;20024;-90
2022/12/25 07:48:42;;;;;;;12.10;2.97;;;;;;;7.27;100.00;101114.34;6184346;23;20004;-88
2022/12/25 07:51:10;;;;;;;10.50;2.77;;;;;;;7.25;100.00;101121.75;6189313;23;20005;-86
2022/12/25 07:53:36;;;;;;;12.68;3.25;;;;;;;7.25;100.00;101138.53;6188793;23;20016;-91
2022/12/25 07:56:17;;;;;;;8.90;3.13;;;;;;;7.27;100.00;101146.31;6196290;23;19989;-93
2022/12/25 07:58:42;;;;;;;13.35;3.10;;;;;;;7.29;100.00;101149.59;6195082;23;20083;-93
2022/12/25 08:01:23;;;;;;;8.87;3.17;;;;;;;7.31;100.00;101163.47;6191826;23;20013;-91
2022/12/25 08:03:49;;;;;;;8.50;2.88;;;;;;;7.30;100.00;101177.88;6190994;23;20008;-92
2022/12/25 08:06:15;;;;;;;11.02;3.30;;;;;;;7.31;100.00;101174.13;6195518;23;20016;-91
2022/12/25 08:08:41;;;;;;;7.43;3.17;;;;;;;7.35;100.00;101169.97;6193023;23;20005;-89
2022/12/25 08:11:08;;;;;;;17.35;8.52;;;;;;;7.37;100.00;101177.78;6196634;23;20053;-91
2022/12/25 08:13:34;;;;;;;12.85;4.80;;;;;;;7.38;100.00;101185.53;6191144;23;20008;-91
2022/12/25 08:16:03;;;;;;;10.23;4.70;;;;;;;7.39;100.00;101197.03;6190459;23;20005;-91
2022/12/25 08:18:30;;;;;;;15.77;5.00;;;;;;;7.39;100.00;101207.69;6188908;23;20032;-91
2022/12/25 08:20:56;;;;;;;16.65;6.00;;;;;;;7.39;100.00;101219.16;6190818;23;20582;-91
2022/12/25 08:23:21;;;;;;;17.40;5.38;;;;;;;7.38;100.00;101217.53;6190814;23;20005;-94
2022/12/25 08:25:46;;;;;;;14.13;4.70;;;;;;;7.41;100.00;101217.06;6190649;23;20339;-92
2022/12/25 08:28:12;;;;;;;12.33;3.60;;;;;;;7.37;100.00;101188.44;6188742;23;20384;-90
2022/12/25 08:30:38;;;;;;;6.13;3.00;;;;;;;7.38;100.00;101177.53;6191862;23;20009;-92
2022/12/25 08:33:04;;;;;;;9.98;3.38;;;;;;;7.40;100.00;101191.44;6186025;23;20333;-90
2022/12/25 08:35:32;;;;;;;8.73;3.60;;;;;;;7.40;100.00;101193.28;6191089;23;20052;-92
2022/12/25 08:37:58;;;;;;;14.52;4.57;;;;;;;7.39;100.00;101187.16;6189390;23;20011;-91
2022/12/25 08:40:23;;;;;;;13.30;4.30;;;;;;;7.40;100.00;101188.78;6183431;23;20084;-94
2022/12/25 08:42:48;;;;;;;11.83;5.50;;;;;;;7.39;100.00;101203.16;6188673;23;20072;-92
2022/12/25 08:45:14;;;;;;;12.90;5.65;;;;;;;7.38;100.00;101206.84;6198203;23;19988;-91
2022/12/25 08:47:39;;;;;;;15.67;5.63;;;;;;;7.37;100.00;101218.56;6195882;23;20005;-92
2022/12/25 08:50:05;;;;;;;10.83;3.90;;;;;;;7.35;100.00;101211.84;6191448;23;20005;-93
2022/12/25 08:52:32;;;;;;;16.48;4.93;;;;;;;7.33;100.00;101208.59;6195690;23;20005;-95
2022/12/25 08:54:57;;;;;;;14.23;4.75;;;;;;;7.30;100.00;101204.53;6196181;23;20451;-92
2022/12/25 08:57:22;;;;;;;14.87;5.97;;;;;;;7.32;100.00;101202.41;6197074;23;20020;-91
2022/12/25 08:59:48;;;;;;;20.60;8.27;;;;;;;7.30;100.00;101188.53;6196778;23;20012;-94
2022/12/25 09:02:15;;;;;;;14.07;6.20;;;;;;;7.27;100.00;101186.31;6193797;23;20005;-90
2022/12/25 09:04:40;;;;;;;13.70;7.20;;;;;;;7.27;100.00;101178.31;6190834;23;20001;-91
2022/12/25 09:07:06;;;;;;;15.60;5.57;;;;;;;7.25;100.00;101177.72;6191465;23;20043;-92
2022/12/25 09:09:31;;;;;;;11.27;6.10;;;;;;;7.22;100.00;101167.50;6199974;23;20005;-92
2022/12/25 09:11:56;;;;;;;13.90;5.40;;;;;;;7.21;100.00;101166.69;6199165;23;20009;-90
2022/12/25 09:14:22;;;;;;;14.83;5.33;;;;;;;7.19;100.00;101155.47;6186181;23;20052;-91
2022/12/25 09:16:49;;;;;;;12.02;4.18;;;;;;;7.21;100.00;101164.00;6190840;23;20021;-90
2022/12/25 09:19:15;;;;;;;12.60;5.17;;;;;;;7.22;100.00;101176.31;6187724;23;20093;-92
2022/12/25 09:21:40;;;;;;;13.87;4.60;;;;;;;7.31;100.00;101195.47;6187425;23;20233;-91
2022/12/25 09:24:06;;;;;;;16.73;5.43;;;;;;;7.34;100.00;101195.00;6190535;23;20009;-91
2022/12/25 09:26:31;;;;;;;14.63;4.67;;;;;;;7.34;100.00;101192.34;6188441;23;20384;-91
2022/12/25 09:28:56;;;;;;;13.80;5.40;;;;;;;7.35;100.00;101196.63;6191153;23;20009;-91
2022/12/25 09:31:22;;;;;;;19.73;6.27;;;;;;;7.33;100.00;101182.72;6186529;23;20033;-92
2022/12/25 09:33:48;;;;;;;17.70;6.80;;;;;;;7.33;100.00;101174.72;6189762;23;20269;-90
2022/12/25 09:36:13;;;;;;;16.08;6.18;;;;;;;7.34;100.00;101179.00;6162641;23;20036;-91
2022/12/25 09:38:39;;;;;;;16.83;5.30;;;;;;;7.34;100.00;101179.00;6187621;23;20012;-91
2022/12/25 09:41:15;;;;;;;11.77;4.50;;;;;;;7.35;100.00;101159.31;6189801;23;20008;-89
2022/12/25 09:44:02;;;;;;;14.77;5.00;;;;;;;7.36;100.00;101150.28;6187406;23;20430;-90
2022/12/25 09:46:36;;;;;;;8.90;4.60;;;;;;;7.35;100.00;101159.31;6188216;23;20268;-90
2022/12/25 09:49:32;;;;;;;10.40;3.92;;;;;;;7.35;100.00;101159.31;6187062;23;20037;-90
2022/12/25 09:52:04;;;;;;;10.48;4.60;;;;;;;7.35;100.00;101161.97;6183971;23;20401;-90
2022/12/25 09:54:40;;;;;;;10.68;4.70;;;;;;;7.37;100.00;101151.91;6182577;23;20012;-90
2022/12/25 09:57:11;;;;;;;11.27;4.80;;;;;;;7.38;100.00;101153.53;6182911;23;20426;-90
2022/12/25 09:59:37;;;;;;;16.65;5.47;;;;;;;7.39;100.00;101141.81;6180746;23;20012;-90
2022/12/25 10:02:29;;;;;;;11.93;5.40;;;;;;;7.37;100.00;101143.91;6182393;23;20016;-90
2022/12/25 10:05:11;;;;;;;9.90;4.80;;;;;;;7.36;100.00;101147.63;6184393;23;20001;-90
2022/12/25 10:08:09;;;;;;;12.27;5.00;;;;;;;7.33;100.00;101132.06;6184126;23;20009;-90
2022/12/25 10:10:51;;;;;;;15.68;5.38;;;;;;;7.34;100.00;101135.56;6183633;23;20019;-90
2022/12/25 10:13:51;;;;;;;18.48;5.13;;;;;;;7.36;100.00;101133.47;6185058;23;20016;-91
2022/12/25 10:16:23;;;;;;;14.23;5.25;;;;;;;7.37;100.00;101114.56;6180145;23;20005;-90
2022/12/25 10:19:33;;;;;;;17.17;5.27;;;;;;;7.39;100.00;101117.03;6184475;23;20015;-90
2022/12/25 10:22:10;;;;;;;9.65;4.70;;;;;;;7.41;100.00;101121.09;6183662;23;20008;-91
2022/12/25 10:24:54;;;;;;;15.68;5.30;;;;;;;7.46;100.00;101122.25;6184192;23;19997;-90
2022/12/25 10:27:33;;;;;;;11.23;5.50;;;;;;;7.48;100.00;101120.19;6183822;23;20013;-91
2022/12/25 10:30:00;;;;;;;11.20;5.22;;;;;;;7.50;100.00;101102.06;6182577;23;20100;-91
2022/12/25 10:32:25;;;;;;;13.98;5.57;;;;;;;7.51;100.00;101109.03;6182052;23;20023;-90
2022/12/25 10:34:50;;;;;;;14.53;5.23;;;;;;;7.51;100.00;101106.38;6181450;23;20088;-90
2022/12/25 10:37:16;;;;;;;10.53;4.73;;;;;;;7.46;100.00;101109.72;6182228;23;19997;-90
2022/12/25 10:39:42;;;;;;;10.37;5.00;;;;;;;7.48;100.00;101122.84;6181382;23;20015;-91
2022/12/25 10:42:14;;;;;;;12.00;5.05;;;;;;;7.45;100.00;101118.75;6181874;23;20016;-91
2022/12/25 10:44:39;;;;;;;12.82;5.75;;;;;;;7.41;100.00;101114.94;6182724;23;20001;-90
2022/12/25 10:47:07;;;;;;;13.50;5.83;;;;;;;7.39;100.00;101117.03;6183431;23;20019;-91
2022/12/25 10:49:37;;;;;;;11.90;5.97;;;;;;;7.37;100.00;101103.91;6182049;23;20071;-91
2022/12/25 10:52:18;;;;;;;13.23;5.55;;;;;;;7.35;100.00;101095.34;6182156;23;20076;-90
2022/12/25 10:54:43;;;;;;;15.00;5.93;;;;;;;7.38;100.00;101088.75;6181398;23;20013;-90
2022/12/25 10:57:09;;;;;;;19.63;6.27;;;;;;;7.41;100.00;101072.25;6182651;23;20011;-90
2022/12/25 10:59:44;;;;;;;11.33;6.43;;;;;;;7.42;100.00;101058.72;6182191;23;20012;-90
2022/12/25 11:02:20;;;;;;;17.10;6.43;;;;;;;7.43;100.00;101055.00;6187156;23;20017;-90
2022/12/25 11:04:45;;;;;;;12.07;6.18;;;;;;;7.46;100.00;101051.06;6195089;23;20001;-89
2022/12/25 11:07:23;;;;;;;16.17;6.30;;;;;;;7.48;100.00;101053.50;6187710;23;20012;-90
2022/12/25 11:09:57;;;;;;;18.52;6.80;;;;;;;7.50;100.00;101062.91;6181606;23;20017;-91
2022/12/25 11:12:40;;;;;;;13.98;6.22;;;;;;;7.52;100.00;101074.16;6183296;23;20009;-89
2022/12/25 11:15:39;;;;;;;14.30;6.80;;;;;;;7.51;100.00;101061.84;6182770;23;20005;-91
2022/12/25 11:18:19;;;;;;;12.82;5.85;;;;;;;7.53;100.00;101062.44;6183268;23;20012;-91
2022/12/25 11:21:14;;;;;;;12.10;5.83;;;;;;;7.56;100.00;101048.66;6181812;23;20005;-90
2022/12/25 11:23:44;;;;;;;13.68;6.20;;;;;;;7.60;100.00;101046.31;6181801;23;20005;-91
2022/12/25 11:26:10;;;;;;;10.63;6.00;;;;;;;7.64;100.00;101038.66;6182497;23;20020;-93
2022/12/25 11:28:37;;;;;;;13.25;5.88;;;;;;;7.63;100.00;101024.53;6183002;23;20325;-96
2022/12/25 11:31:11;;;;;;;15.45;6.57;;;;;;;7.68;100.00;101013.94;6179704;23;20005;-94
2022/12/25 11:33:54;;;;;;;14.60;6.67;;;;;;;7.67;100.00;101003.53;6185200;23;20341;-94
2022/12/25 11:36:31;;;;;;;15.17;6.67;;;;;;;7.72;100.00;101008.97;6187673;23;20240;-93
2022/12/25 11:39:12;;;;;;;15.88;7.05;;;;;;;7.72;100.00;101006.31;6187340;23;20036;-96
2022/12/25 11:41:40;;;;;;;12.60;6.57;;;;;;;7.71;100.00;101002.03;6169841;23;20024;-96
2022/12/25 11:44:25;;;;;;;13.48;7.22;;;;;;;7.67;100.00;100993.66;6192530;23;19997;-96
2022/12/25 11:46:53;;;;;;;13.77;7.13;;;;;;;7.64;100.00;100996.81;6165686;23;20016;-96
2022/12/25 11:49:20;;;;;;;13.02;6.47;;;;;;;7.64;100.00;101001.31;6162895;23;20000;-96
2022/12/25 11:51:50;;;;;;;14.43;7.70;;;;;;;7.63;100.00;100995.19;6190065;23;20009;-96
2022/12/25 11:54:26;;;;;;;12.15;7.43;;;;;;;7.61;100.00;100994.59;6190113;23;20048;-96
2022/12/25 11:56:52;;;;;;;13.60;7.45;;;;;;;7.63;100.00;100997.84;6187139;23;20012;-96
2022/12/25 11:59:26;;;;;;;18.70;8.32;;;;;;;7.60;100.00;100984.97;6187835;23;20005;-96
2022/12/25 12:02:00;;;;;;;18.65;8.82;;;;;;;7.60;100.00;100971.66;6193862;23;20005;-96
2022/12/25 12:04:36;;;;;;;13.13;8.37;;;;;;;7.59;100.00;100964.69;6200218;23;20001;-96
2022/12/25 12:07:05;;;;;;;14.50;8.83;;;;;;;7.61;100.00;100970.59;6176631;23;20309;-96
2022/12/25 12:10:04;;;;;;;15.27;8.68;;;;;;;7.64;100.00;100970.13;6199601;23;20007;-96
2022/12/25 12:12:51;;;;;;;18.15;8.90;;;;;;;7.61;100.00;100965.28;6208860;23;20009;-96
2022/12/25 12:15:34;;;;;;;14.93;8.50;;;;;;;7.58;100.00;100971.88;6182683;23;20028;-96
2022/12/25 12:18:20;;;;;;;16.98;9.32;;;;;;;7.55;100.00;100984.84;6208284;23;20441;-96
2022/12/25 12:21:01;;;;;;;22.80;9.80;;;;;;;7.55;100.00;100971.53;6205277;23;20649;-96
2022/12/25 12:23:48;;;;;;;19.67;10.27;;;;;;;7.55;100.00;100969.69;6195538;23;20464;-96
2022/12/25 12:26:25;;;;;;;22.33;10.40;;;;;;;7.57;100.00;100969.44;6188886;23;20009;-96
2022/12/25 12:28:55;;;;;;;16.52;9.40;;;;;;;7.58;100.00;100965.72;6188868;23;20001;-96
2022/12/25 12:31:21;;;;;;;20.95;10.23;;;;;;;7.59;100.00;100962.03;6188614;23;20001;-96
2022/12/25 12:33:52;;;;;;;18.02;9.93;;;;;;;7.63;100.00;100962.34;6196763;23;20011;-96
2022/12/25 12:36:21;;;;;;;19.95;9.85;;;;;;;7.65;100.00;100955.75;6170616;23;20001;-96
2022/12/25 12:38:48;;;;;;;23.53;10.83;;;;;;;7.65;100.00;100939.75;6192571;23;20005;-96
2022/12/25 12:41:15;;;;;;;21.10;10.40;;;;;;;7.73;100.00;100933.25;6194707;23;20240;-96
2022/12/25 12:43:53;;;;;;;18.50;10.13;;;;;;;7.83;100.00;100929.97;6168163;23;20012;-96
2022/12/25 12:46:23;;;;;;;23.63;12.43;;;;;;;7.83;100.00;100932.63;6191503;23;20076;-96
2022/12/25 12:48:51;;;;;;;25.48;11.48;;;;;;;7.85;100.00;100935.88;6161156;23;20009;-96
2022/12/25 12:51:28;;;;;;;24.40;11.20;;;;;;;7.82;100.00;100934.47;6159873;23;20009;-95
2022/12/25 12:54:24;;;;;;;23.70;11.03;;;;;;;7.83;100.00;100935.31;6185096;23;20000;-95
2022/12/25 12:57:03;;;;;;;22.00;11.27;;;;;;;7.82;100.00;100936.34;6159733;23;20244;-96
2022/12/25 12:59:39;;;;;;;22.25;10.65;;;;;;;7.82;100.00;100929.16;6187214;23;20009;-96
2022/12/25 13:02:38;;;;;;;21.42;11.65;;;;;;;7.82;100.00;100931.81;6163345;23;20028;-96
2022/12/25 13:05:16;;;;;;;24.60;12.27;;;;;;;7.85;100.00;100923.34;6187749;23;20009;-94
2022/12/25 13:07:51;;;;;;;25.65;13.38;;;;;;;7.85;100.00;100923.34;6190006;23;20434;-93
2022/12/25 13:10:31;;;;;;;25.67;12.27;;;;;;;7.83;100.00;100920.09;6187573;23;20008;-94
2022/12/25 13:13:12;;;;;;;24.40;12.03;;;;;;;7.81;100.00;100906.19;6188324;23;20244;-95
2022/12/25 13:15:38;;;;;;;24.45;11.93;;;;;;;7.86;100.00;100898.28;6190030;23;20013;-93